Time;durP1;ratioP1;P1;durP2;ratioP2;P2;SDS_P1;SDS_P2;PMS_P1;PMS_P2;Temp;Humidity;BMP_temperature;BMP_pressure;BME280_temperature;BME280_humidity;BME280_pressure;Samples;Min_cycle;Max_cycle;Signal;HPM_P1;HPM_P2
2023/02/12 00:01:27;;;;;;;17.83;12.73;;;11.30;99.90;;;11.48;79.21;103715.06;5094290;28;20278;-67
2023/02/12 00:03:58;;;;;;;19.55;13.23;;;11.20;99.90;;;11.51;79.46;103716.94;5075722;28;20052;-72
2023/02/12 00:06:27;;;;;;;19.23;12.77;;;11.10;99.90;;;11.45;79.38;103716.72;5093728;28;20394;-76
2023/02/12 00:08:59;;;;;;;16.60;11.90;;;11.10;99.90;;;11.53;79.35;103717.91;5093532;28;20101;-72
2023/02/12 00:11:29;;;;;;;15.02;11.68;;;11.20;99.90;;;11.50;78.89;103713.38;5093536;28;20055;-71
2023/02/12 00:13:58;;;;;;;15.10;12.02;;;11.20;99.90;;;11.43;78.70;103710.44;5093845;28;20044;-72
2023/02/12 00:16:28;;;;;;;12.57;10.73;;;11.10;99.90;;;11.42;78.02;103706.00;5093425;28;20465;-72
2023/02/12 00:19:00;;;;;;;15.20;10.68;;;11.10;99.90;;;11.51;77.62;103717.84;5093484;28;20126;-72
2023/02/12 00:21:28;;;;;;;14.23;9.80;;;11.10;99.90;;;11.37;77.49;103695.22;5093431;28;20043;-71
2023/02/12 00:23:57;;;;;;;10.65;9.50;;;11.20;99.90;;;11.58;77.04;103713.66;5093328;28;20040;-71
2023/02/12 00:26:25;;;;;;;13.43;9.85;;;11.20;99.90;;;11.51;76.62;103717.84;5075588;28;20459;-71
2023/02/12 00:28:55;;;;;;;9.45;8.50;;;11.20;99.90;;;11.51;76.80;103716.94;5074877;28;20101;-70
2023/02/12 00:31:25;;;;;;;11.20;9.05;;;11.10;99.90;;;11.52;76.59;103724.94;5093325;28;20040;-72
2023/02/12 00:33:59;;;;;;;10.98;9.02;;;11.20;99.90;;;11.58;76.70;103729.56;5075379;28;20155;-72
2023/02/12 00:36:30;;;;;;;15.45;10.05;;;11.20;99.90;;;11.67;76.38;103728.19;5093232;28;20040;-71
2023/02/12 00:38:59;;;;;;;13.77;10.25;;;11.30;99.90;;;11.69;76.16;103723.84;5075328;28;20464;-72
2023/02/12 00:41:29;;;;;;;16.30;10.48;;;11.40;99.90;;;11.71;76.08;103713.31;5075281;28;20072;-71
2023/02/12 00:43:57;;;;;;;12.70;10.07;;;11.40;99.90;;;11.70;75.88;103712.41;5093341;28;20048;-71
2023/02/12 00:46:27;;;;;;;12.30;9.93;;;11.40;99.90;;;11.64;75.86;103709.50;5075150;28;20048;-72
2023/02/12 00:48:55;;;;;;;17.30;11.07;;;11.50;99.90;;;11.65;75.97;103713.97;5093034;28;20509;-70
2023/02/12 00:51:25;;;;;;;13.30;10.77;;;11.40;99.90;;;11.65;76.16;103710.41;5093328;28;20044;-72
2023/02/12 00:53:53;;;;;;;14.35;10.80;;;11.40;99.90;;;11.67;76.06;103722.00;5093181;28;20059;-71
2023/02/12 00:56:21;;;;;;;12.73;9.65;;;11.40;99.90;;;11.60;75.87;103712.88;5093311;28;20048;-71
2023/02/12 00:58:50;;;;;;;13.25;10.00;;;11.30;99.90;;;11.55;75.86;103719.78;5093105;28;20044;-72
2023/02/12 01:01:18;;;;;;;11.10;9.55;;;11.30;99.90;;;11.58;75.58;103711.91;5092871;28;20452;-72
2023/02/12 01:03:47;;;;;;;10.15;8.43;;;11.30;99.90;;;11.61;75.12;103709.38;5074963;28;20048;-71
2023/02/12 01:06:15;;;;;;;10.55;8.13;;;11.30;99.90;;;11.48;74.12;103712.41;5074902;28;20052;-72
2023/02/12 01:08:51;;;;;;;8.93;7.63;;;11.20;99.90;;;11.37;74.60;103705.81;5074924;28;20072;-72
2023/02/12 01:11:20;;;;;;;9.65;7.75;;;11.10;99.90;;;11.35;73.95;103686.31;5075040;28;20048;-72
2023/02/12 01:13:49;;;;;;;8.82;6.50;;;11.10;99.90;;;11.53;73.08;103704.66;5093081;28;20036;-71
2023/02/12 01:16:21;;;;;;;6.90;6.20;;;11.20;99.90;;;11.51;72.80;103707.25;5074912;28;20044;-71
2023/02/12 01:18:51;;;;;;;7.20;6.15;;;11.20;99.90;;;11.62;72.25;103708.53;5092749;28;20040;-71
2023/02/12 01:21:26;;;;;;;7.03;5.90;;;11.30;99.90;;;11.70;71.81;103715.06;5092784;28;20394;-73
2023/02/12 01:23:57;;;;;;;7.72;5.95;;;11.30;99.90;;;11.73;71.41;103712.50;5093094;28;20085;-71
2023/02/12 01:26:27;;;;;;;7.00;6.30;;;11.40;99.90;;;11.60;70.99;103689.03;5074494;28;20048;-72
2023/02/12 01:28:57;;;;;;;6.40;5.80;;;11.40;99.90;;;11.75;70.87;103712.56;5074842;28;20135;-71
2023/02/12 01:31:29;;;;;;;9.73;6.35;;;11.40;99.90;;;11.69;70.83;103704.41;5074849;28;20607;-72
2023/02/12 01:34:00;;;;;;;7.50;6.28;;;11.40;99.90;;;11.74;70.83;103705.47;5074685;28;20058;-71
2023/02/12 01:36:30;;;;;;;;;;;11.40;99.90;;;11.52;72.03;103703.75;5093028;28;20039;-72
2023/02/12 01:39:01;;;;;;;10.63;7.50;;;11.30;99.90;;;11.47;73.33;103715.03;5093112;28;20031;-72
2023/02/12 01:41:33;;;;;;;8.93;7.57;;;11.20;99.90;;;11.54;72.68;103710.00;5095363;28;20051;-73
2023/02/12 01:44:13;;;;;;;8.63;7.75;;;11.20;99.90;;;11.46;73.32;103702.59;5096664;28;20075;-72
2023/02/12 01:46:43;;;;;;;8.18;7.47;;;11.20;99.90;;;11.48;73.29;103701.81;5096447;28;20458;-71
2023/02/12 01:49:18;;;;;;;10.40;7.57;;;11.20;99.90;;;11.51;73.24;103711.66;5096558;28;20051;-71
2023/02/12 01:51:50;;;;;;;10.40;7.72;;;11.20;99.90;;;11.52;73.22;103714.34;5096198;28;20055;-70
2023/02/12 01:54:24;;;;;;;9.23;8.32;;;11.20;99.90;;;11.43;73.43;103699.84;5096411;28;20437;-72
2023/02/12 01:56:53;;;;;;;9.25;7.55;;;11.10;99.90;;;11.37;73.13;103675.75;5096362;28;20039;-72
2023/02/12 01:59:22;;;;;;;9.65;8.23;;;11.20;99.90;;;11.58;72.97;103709.28;5096309;28;20044;-72
2023/02/12 02:01:50;;;;;;;8.05;7.28;;;11.20;99.90;;;11.61;72.66;103712.03;5095959;28;20055;-72
2023/02/12 02:04:27;;;;;;;7.20;6.40;;;11.30;99.90;;;11.64;72.12;103709.50;5078071;28;20052;-72
2023/02/12 02:06:58;;;;;;;9.20;7.25;;;11.30;99.90;;;11.61;72.29;103717.31;5077956;28;20083;-72
2023/02/12 02:09:29;;;;;;;7.90;7.10;;;11.30;99.90;;;11.59;72.25;103716.38;5096116;28;20094;-73
2023/02/12 02:14:45;;;;;;;8.35;6.82;;;11.30;99.90;;;11.55;72.05;103714.47;5077874;28;20089;-72
2023/02/12 02:17:29;;;;;;;7.05;6.35;;;11.30;99.90;;;11.61;71.67;103725.28;5095990;28;20048;-72
2023/02/12 02:20:49;;;;;;;7.07;6.47;;;11.30;99.90;;;11.60;71.20;103717.28;5095935;28;20122;-72
2023/02/12 02:24:18;;;;;;;7.15;6.20;;;11.30;99.90;;;11.63;70.69;103722.72;5095891;28;20068;-71
2023/02/12 02:27:15;;;;;;;6.88;6.28;;;11.30;99.90;;;11.68;70.23;103719.41;5095587;28;20044;-73
2023/02/12 02:30:18;;;;;;;6.90;6.30;;;11.40;99.90;;;11.70;69.96;103708.84;5095508;28;20119;-72
2023/02/12 02:32:56;;;;;;;7.32;6.63;;;11.40;99.90;;;11.70;69.80;103711.50;5095272;28;20089;-72
2023/02/12 02:35:33;;;;;;;7.78;6.35;;;11.40;99.90;;;11.75;69.82;103721.44;5095314;28;20040;-72
2023/02/12 02:38:20;;;;;;;7.00;6.40;;;11.50;99.90;;;11.74;69.69;103722.28;5095337;28;20043;-72
2023/02/12 02:40:55;;;;;;;7.57;6.88;;;11.50;99.90;;;11.72;69.70;103716.03;5095190;28;20408;-73
2023/02/12 02:43:29;;;;;;;7.57;6.88;;;11.50;99.90;;;11.72;69.75;103716.03;5095804;28;20424;-72
2023/02/12 02:46:06;;;;;;;9.27;6.65;;;11.40;99.90;;;11.77;69.19;103716.16;5095161;28;20551;-72
2023/02/12 02:48:38;;;;;;;7.05;6.32;;;11.50;99.90;;;11.77;69.13;103711.78;5095334;28;20067;-72
2023/02/12 02:51:13;;;;;;;6.50;6.10;;;11.50;99.90;;;11.76;69.05;103706.44;5076901;28;20047;-71
2023/02/12 02:53:48;;;;;;;6.82;6.22;;;11.50;99.90;;;11.80;68.47;103713.66;5094830;28;20044;-71
2023/02/12 02:56:22;;;;;;;7.45;5.60;;;11.50;99.90;;;11.78;67.74;103712.69;5077114;28;20486;-72
2023/02/12 02:58:55;;;;;;;6.30;4.88;;;11.50;99.90;;;11.31;67.43;103619.88;5095064;28;20048;-72
2023/02/12 03:01:30;;;;;;;5.72;5.32;;;11.50;99.90;;;11.78;67.49;103699.44;5076978;28;20098;-71
2023/02/12 03:04:04;;;;;;;7.70;5.35;;;11.50;99.90;;;11.52;67.57;103711.69;5095420;28;20087;-72
2023/02/12 03:06:41;;;;;;;6.03;5.28;;;11.30;99.90;;;11.27;67.63;103692.16;5095014;28;20074;-72
2023/02/12 03:09:21;;;;;;;6.00;5.40;;;11.10;99.90;;;11.28;68.09;103686.03;5094670;28;20064;-72
2023/02/12 03:11:50;;;;;;;5.97;5.35;;;11.00;99.90;;;11.21;68.23;103691.91;5094993;28;20054;-72
2023/02/12 03:14:24;;;;;;;5.32;4.82;;;10.90;99.90;;;11.27;68.25;103698.38;5094535;28;20072;-72
2023/02/12 03:16:59;;;;;;;5.40;4.90;;;10.90;99.90;;;11.23;68.10;103687.56;5076904;28;20086;-70
2023/02/12 03:19:32;;;;;;;5.30;4.72;;;10.90;99.90;;;11.34;68.00;103692.44;5094578;28;20094;-72
2023/02/12 03:22:06;;;;;;;7.05;5.10;;;11.00;99.90;;;11.37;67.84;103702.25;5094484;28;20044;-72
2023/02/12 03:24:41;;;;;;;5.47;4.78;;;11.00;99.90;;;11.23;67.90;103696.44;5094432;28;20044;-72
2023/02/12 03:27:13;;;;;;;5.95;5.13;;;10.90;99.90;;;11.15;68.26;103695.25;5094342;28;20070;-71
2023/02/12 03:29:42;;;;;;;5.30;4.80;;;10.80;99.90;;;11.25;68.04;103684.16;5076369;28;20135;-72
2023/02/12 03:32:30;;;;;;;5.40;5.00;;;10.90;99.90;;;11.36;67.82;103688.09;5094450;28;20042;-72
2023/02/12 03:35:10;;;;;;;5.78;5.28;;;11.00;99.90;;;11.49;67.66;103690.38;5094257;28;20040;-72
2023/02/12 03:37:45;;;;;;;6.15;5.63;;;11.10;99.90;;;11.45;67.09;103685.81;5094146;28;20048;-73
2023/02/12 03:40:19;;;;;;;5.57;5.00;;;11.10;99.90;;;11.42;67.17;103684.81;5094383;28;20562;-73
2023/02/12 03:42:55;;;;;;;5.72;5.18;;;11.10;99.90;;;11.52;67.00;103687.84;5094352;28;20044;-72
2023/02/12 03:45:38;;;;;;;5.25;4.82;;;11.10;99.90;;;11.55;66.61;103690.63;5094302;28;20073;-72
2023/02/12 03:48:12;;;;;;;5.93;5.50;;;11.20;99.90;;;11.38;67.01;103691.72;5094193;28;20064;-73
2023/02/12 03:50:49;;;;;;;8.10;5.82;;;11.10;99.90;;;11.41;66.96;103689.19;5093903;28;20131;-72
2023/02/12 03:53:18;;;;;;;6.63;6.00;;;11.10;99.90;;;11.44;67.00;103694.59;5093912;28;20040;-72
2023/02/12 03:55:51;;;;;;;7.13;5.80;;;11.10;99.90;;;10.84;66.91;103578.38;5094079;28;20130;-72
2023/02/12 03:58:27;;;;;;;6.35;5.85;;;11.10;99.90;;;11.29;66.57;103662.22;5094102;28;20131;-72
2023/02/12 04:00:56;;;;;;;5.70;5.20;;;11.10;99.90;;;11.58;66.42;103697.75;5094045;28;20072;-73
2023/02/12 04:03:26;;;;;;;6.10;5.63;;;11.20;99.90;;;11.63;66.25;103696.19;5093639;28;20047;-73
2023/02/12 04:05:55;;;;;;;7.78;5.90;;;11.30;99.90;;;11.68;66.67;103697.28;5093641;28;20545;-72
2023/02/12 04:08:26;;;;;;;8.25;7.45;;;11.40;99.90;;;11.57;67.46;103701.28;5093734;28;20490;-72
2023/02/12 04:11:08;;;;;;;8.70;8.00;;;11.30;99.90;;;11.54;67.77;103694.09;5093853;28;20040;-72
2023/02/12 04:13:47;;;;;;;8.90;8.00;;;11.30;99.90;;;11.63;67.43;103705.03;5093795;28;20131;-72
2023/02/12 04:16:25;;;;;;;8.48;7.68;;;11.30;99.90;;;11.59;67.15;103705.75;5093501;28;20054;-72
2023/02/12 04:18:55;;;;;;;9.00;8.30;;;11.30;99.90;;;11.55;67.08;103714.47;5093473;28;20051;-72
2023/02/12 04:21:44;;;;;;;8.52;7.72;;;11.30;99.90;;;11.58;67.01;103719.88;5093419;28;20044;-73
2023/02/12 04:24:19;;;;;;;8.90;8.00;;;11.30;99.90;;;11.49;66.79;103692.13;5093743;28;20050;-72
2023/02/12 04:26:54;;;;;;;8.73;7.93;;;11.30;99.90;;;11.48;66.59;103719.47;5093590;28;20044;-72
2023/02/12 04:29:32;;;;;;;9.63;8.73;;;11.20;99.90;;;11.51;66.80;103728.47;5093246;28;20149;-73
2023/02/12 04:32:07;;;;;;;8.52;7.75;;;11.10;99.90;;;11.63;66.77;103733.31;5093575;28;20044;-72
2023/02/12 04:34:45;;;;;;;8.40;7.68;;;11.30;99.90;;;10.98;66.70;103616.88;5093186;28;20055;-72
2023/02/12 04:37:18;;;;;;;9.02;8.23;;;11.20;99.90;;;11.61;66.79;103732.34;5093741;28;20100;-71
2023/02/12 04:39:48;;;;;;;8.88;8.07;;;11.30;99.90;;;11.58;66.73;103737.53;5093692;28;20565;-72
2023/02/12 04:42:16;;;;;;;9.20;8.32;;;11.20;99.90;;;11.63;66.66;103736.84;5093331;28;20456;-73
2023/02/12 04:44:45;;;;;;;9.02;8.23;;;11.20;99.90;;;11.61;66.49;103725.28;5093050;28;20387;-72
2023/02/12 04:47:15;;;;;;;10.00;8.98;;;11.30;99.90;;;11.61;66.32;103738.53;5092985;28;20048;-73
2023/02/12 04:49:44;;;;;;;10.90;9.80;;;11.30;99.90;;;11.52;66.51;103740.84;5092943;28;20068;-72
2023/02/12 04:52:13;;;;;;;10.13;9.23;;;11.20;99.90;;;11.48;66.70;103738.00;5093053;28;20355;-72
2023/02/12 04:54:41;;;;;;;11.75;10.57;;;11.10;99.90;;;11.47;66.48;103731.84;5093045;28;20639;-73
2023/02/12 04:57:09;;;;;;;12.07;10.98;;;11.10;99.90;;;11.52;66.80;103735.56;5093766;28;20593;-73
2023/02/12 04:59:38;;;;;;;13.02;11.65;;;11.10;99.90;;;11.60;66.70;103742.03;5093512;28;20055;-73
2023/02/12 05:02:06;;;;;;;11.82;10.80;;;11.20;99.90;;;11.59;66.78;103728.75;5092906;28;20051;-72
2023/02/12 05:04:34;;;;;;;11.48;10.48;;;11.20;99.90;;;11.63;66.78;103738.63;5092943;28;20130;-73
2023/02/12 05:07:04;;;;;;;11.05;10.05;;;11.30;99.90;;;11.63;66.65;103733.31;5092874;28;20435;-72
2023/02/12 05:09:32;;;;;;;12.47;11.27;;;11.30;99.90;;;11.59;66.52;103729.63;5093129;28;20032;-72
2023/02/12 05:12:01;;;;;;;12.35;11.25;;;11.20;99.90;;;11.49;66.45;103702.72;5093105;28;20411;-72
2023/02/12 05:14:29;;;;;;;11.30;10.25;;;11.30;99.90;;;11.57;67.13;103731.34;5093018;28;20051;-73
2023/02/12 05:16:57;;;;;;;12.02;10.82;;;11.20;99.90;;;11.53;67.13;103728.50;5078255;28;20536;-72
2023/02/12 05:19:26;;;;;;;12.43;11.18;;;11.20;99.90;;;11.53;66.94;103726.78;5097080;28;20044;-73
2023/02/12 05:21:54;;;;;;;10.95;10.00;;;11.20;99.90;;;11.51;67.35;103730.19;5097258;28;20183;-72
2023/02/12 05:24:24;;;;;;;10.90;9.80;;;11.10;99.90;;;11.48;67.37;103733.63;5078577;28;20074;-72
2023/02/12 05:26:53;;;;;;;10.35;9.40;;;11.20;99.90;;;11.46;67.94;103724.72;5097508;28;20040;-71
2023/02/12 05:29:21;;;;;;;11.13;10.10;;;11.10;99.90;;;11.48;67.72;103723.03;5096685;28;20436;-73
2023/02/12 05:31:49;;;;;;;10.65;9.75;;;11.10;99.90;;;11.37;68.36;103719.06;5096555;28;20036;-73
2023/02/12 05:34:19;;;;;;;12.15;10.82;;;11.10;99.90;;;11.42;68.49;103732.50;5096344;28;20054;-72
2023/02/12 05:36:47;;;;;;;14.35;11.38;;;11.10;99.90;;;11.48;68.15;103725.69;5078231;28;20048;-73
2023/02/12 05:39:15;;;;;;;12.18;10.98;;;11.20;99.90;;;11.38;68.32;103720.88;5096706;28;20048;-72
2023/02/12 05:41:45;;;;;;;12.57;11.40;;;11.10;99.90;;;11.29;68.89;103719.63;5096671;28;20119;-71
2023/02/12 05:44:14;;;;;;;13.15;10.75;;;11.00;99.90;;;11.29;69.15;103730.22;5078442;28;20502;-71
2023/02/12 05:46:43;;;;;;;12.35;11.05;;;11.00;99.90;;;11.39;69.06;103728.00;5096282;28;20047;-73
2023/02/12 05:49:11;;;;;;;11.45;10.27;;;11.00;99.90;;;11.33;68.92;103721.53;5096388;28;20048;-72
2023/02/12 05:51:39;;;;;;;11.82;10.73;;;11.10;99.90;;;11.29;69.27;103730.22;5096984;28;20416;-72
2023/02/12 05:54:08;;;;;;;12.70;11.40;;;11.00;99.90;;;11.25;69.49;103737.16;5096178;28;20046;-73
2023/02/12 05:56:41;;;;;;;14.00;10.35;;;11.00;99.90;;;11.11;69.69;103706.56;5096630;28;20078;-73
2023/02/12 05:59:17;;;;;;;13.43;10.25;;;11.00;99.90;;;11.32;69.69;103744.50;5096090;28;20131;-72
2023/02/12 06:01:47;;;;;;;11.50;10.35;;;11.00;99.90;;;11.34;69.37;103739.25;5096131;28;20055;-71
2023/02/12 06:04:19;;;;;;;11.15;10.05;;;11.00;99.90;;;11.33;69.40;103726.84;5096347;28;20115;-72
2023/02/12 06:06:47;;;;;;;11.93;10.85;;;11.00;99.90;;;11.19;70.28;103734.25;5096199;28;20050;-73
2023/02/12 06:09:16;;;;;;;11.93;10.57;;;10.80;99.90;;;11.05;71.02;103734.56;5095817;28;20048;-72
2023/02/12 06:11:44;;;;;;;11.57;10.30;;;10.70;99.90;;;10.94;71.74;103741.19;5077589;28;20135;-73
2023/02/12 06:14:18;;;;;;;11.40;10.40;;;10.60;99.90;;;10.85;72.07;103733.78;5095785;28;20047;-73
2023/02/12 06:16:48;;;;;;;11.20;10.20;;;10.50;99.90;;;10.74;72.27;103727.16;5096107;28;20105;-72
2023/02/12 06:19:18;;;;;;;11.77;10.55;;;10.40;99.90;;;10.83;72.49;103739.00;5095723;28;20094;-72
2023/02/12 06:21:46;;;;;;;11.70;10.50;;;10.50;99.90;;;10.88;72.35;103736.53;5096361;28;20048;-71
2023/02/12 06:24:16;;;;;;;12.10;10.98;;;10.60;99.90;;;10.85;71.95;103721.44;5096127;28;20051;-73
2023/02/12 06:26:45;;;;;;;11.80;10.60;;;10.60;99.90;;;10.93;71.67;103740.28;5094774;28;20482;-72
2023/02/12 06:29:15;;;;;;;13.75;11.05;;;10.60;99.90;;;10.93;71.85;103729.69;5095286;28;20130;-72
2023/02/12 06:31:43;;;;;;;12.70;10.40;;;10.70;99.90;;;10.99;71.74;103729.94;5095737;28;20455;-72
2023/02/12 06:34:15;;;;;;;12.95;11.75;;;10.70;99.90;;;11.04;71.62;103728.38;5095787;28;20079;-73
2023/02/12 06:36:45;;;;;;;13.50;11.48;;;10.70;99.90;;;11.12;70.89;103736.59;5096185;28;20124;-72
2023/02/12 06:39:16;;;;;;;13.30;11.75;;;10.80;99.90;;;11.15;70.57;103736.75;5095611;28;20482;-72
2023/02/12 06:41:45;;;;;;;14.20;11.93;;;10.80;99.90;;;11.12;70.50;103726.94;5095530;28;20124;-73
2023/02/12 06:44:15;;;;;;;14.88;11.73;;;10.90;99.90;;;11.14;70.30;103740.22;5095419;28;20521;-72
2023/02/12 06:46:43;;;;;;;13.33;12.03;;;10.80;99.90;;;11.16;70.15;103742.09;5095201;28;20051;-72
2023/02/12 06:49:13;;;;;;;12.73;11.43;;;10.90;99.90;;;11.07;69.87;103747.00;5094994;28;20493;-73
2023/02/12 06:51:42;;;;;;;14.32;11.38;;;10.90;99.90;;;11.25;69.74;103742.44;5095325;28;20149;-73
2023/02/12 06:54:14;;;;;;;11.88;10.68;;;11.00;99.90;;;11.16;69.75;103726.22;5077183;28;20048;-73
2023/02/12 06:56:43;;;;;;;12.02;10.82;;;11.00;99.90;;;11.18;70.24;103742.16;5095244;28;20051;-73
2023/02/12 06:59:16;;;;;;;14.15;10.70;;;10.90;99.90;;;11.18;70.14;103743.06;5094894;28;20047;-73
2023/02/12 07:01:44;;;;;;;13.63;11.20;;;10.90;99.90;;;11.10;70.66;103739.22;5095243;28;20071;-72
2023/02/12 07:04:13;;;;;;;13.75;11.70;;;10.90;99.90;;;10.98;70.41;103733.41;5094804;28;20039;-73
2023/02/12 07:06:42;;;;;;;11.90;10.80;;;10.80;99.90;;;10.97;70.73;103744.88;5094993;28;20486;-72
2023/02/12 07:09:10;;;;;;;12.40;11.25;;;10.70;99.90;;;10.86;71.29;103756.75;5094549;28;20054;-71
2023/02/12 07:11:39;;;;;;;12.52;11.27;;;10.50;99.90;;;10.89;71.30;103764.84;5094630;28;20135;-73
2023/02/12 07:14:07;;;;;;;14.55;13.00;;;10.50;99.90;;;10.84;71.54;103759.34;5094815;28;20040;-73
2023/02/12 07:16:37;;;;;;;19.25;13.07;;;10.50;99.90;;;10.76;71.73;103763.41;5094577;28;20131;-72
2023/02/12 07:19:06;;;;;;;16.00;13.68;;;10.40;99.90;;;10.83;71.75;103769.88;5094602;28;20048;-72
2023/02/12 07:21:34;;;;;;;17.27;14.48;;;10.40;99.90;;;10.88;71.36;103765.66;5094283;28;20047;-72
2023/02/12 07:24:02;;;;;;;15.27;13.68;;;10.50;99.90;;;10.85;71.93;103771.75;5094650;28;20036;-72
2023/02/12 07:26:31;;;;;;;15.73;13.80;;;10.50;99.90;;;10.90;71.89;103782.53;5076366;28;20064;-73
2023/02/12 07:28:59;;;;;;;17.55;14.55;;;10.60;99.90;;;10.88;71.71;103781.56;5094512;28;20089;-72
2023/02/12 07:31:28;;;;;;;18.42;15.23;;;10.60;99.90;;;10.94;71.39;103776.50;5094507;28;20216;-72
2023/02/12 07:34:00;;;;;;;18.38;15.48;;;10.60;99.90;;;10.94;71.27;103786.22;5094100;28;20060;-72
2023/02/12 07:36:31;;;;;;;16.20;14.50;;;10.60;99.90;;;10.79;70.90;103787.38;5094203;28;20059;-72
2023/02/12 07:39:00;;;;;;;17.45;14.20;;;10.50;99.90;;;10.45;71.79;103797.38;5075933;28;20139;-72
2023/02/12 07:41:31;;;;;;;16.15;13.65;;;10.20;99.90;;;10.35;72.19;103795.19;5094654;28;20140;-72
2023/02/12 07:44:02;;;;;;;15.18;13.63;;;10.00;99.90;;;10.48;72.51;103791.31;5094070;28;20047;-72
2023/02/12 07:46:34;;;;;;;15.40;13.88;;;10.00;99.90;;;10.39;72.19;103768.03;5094510;28;20118;-72
2023/02/12 07:49:06;;;;;;;14.93;12.93;;;10.10;99.90;;;10.51;72.31;103796.75;5093909;28;20064;-72
2023/02/12 07:51:36;;;;;;;15.18;13.57;;;10.10;99.90;;;10.57;72.39;103799.66;5093786;28;20047;-72
2023/02/12 07:54:05;;;;;;;15.63;13.67;;;10.20;99.90;;;10.57;72.58;103807.59;5094213;28;20043;-72
2023/02/12 07:56:36;;;;;;;15.07;13.48;;;10.20;99.90;;;10.65;71.93;103800.88;5093742;28;20393;-71
2023/02/12 07:59:07;;;;;;;17.95;13.82;;;10.30;99.90;;;10.79;71.64;103797.06;5094364;28;20047;-71
2023/02/12 08:01:36;;;;;;;;;;;10.40;99.90;;;10.85;71.58;103798.25;5094435;28;20068;-72
2023/02/12 08:04:09;;;;;;;18.88;14.02;;;10.60;99.90;;;10.90;70.93;103793.13;5093605;28;19920;-71
2023/02/12 08:06:40;;;;;;;20.58;15.45;;;10.60;99.90;;;10.97;70.76;103794.28;5094217;28;20044;-72
2023/02/12 08:09:11;;;;;;;20.00;15.05;;;10.70;99.90;;;10.99;70.33;103796.16;5093832;28;20048;-72
2023/02/12 08:11:41;;;;;;;;;;;10.70;99.90;;;11.06;70.05;103800.84;5094256;28;20043;-71
2023/02/12 08:14:13;;;;;;;19.25;14.70;;;10.80;99.90;;;11.04;69.94;103802.53;5093745;28;19920;-71
2023/02/12 08:16:43;;;;;;;17.70;14.55;;;10.80;99.90;;;11.11;69.72;103809.00;5093457;28;20074;-72
2023/02/12 08:19:14;;;;;;;17.08;14.07;;;10.80;99.90;;;11.10;69.85;103805.44;5093956;28;20055;-71
2023/02/12 08:21:50;;;;;;;19.13;14.23;;;10.80;99.90;;;11.16;69.73;103803.03;5093262;28;20051;-71
2023/02/12 08:24:20;;;;;;;16.75;13.85;;;10.80;99.90;;;11.19;69.67;103802.28;5075291;28;20048;-72
2023/02/12 08:26:49;;;;;;;17.75;14.75;;;10.90;99.90;;;11.20;69.81;103804.97;5075386;28;20052;-72
2023/02/12 08:29:21;;;;;;;17.70;14.25;;;10.90;99.90;;;10.66;69.29;103694.16;5093405;28;20052;-73
2023/02/12 08:31:51;;;;;;;17.08;13.70;;;10.90;99.90;;;11.23;69.37;103793.56;5093302;28;20118;-73
2023/02/12 08:34:24;;;;;;;16.83;14.57;;;11.00;99.90;;;11.28;69.42;103805.28;5092499;28;20062;-72
2023/02/12 08:36:54;;;;;;;16.35;14.30;;;11.00;99.90;;;11.30;69.48;103807.16;5093302;28;20446;-72
2023/02/12 08:39:24;;;;;;;17.65;14.93;;;11.00;99.90;;;11.31;69.09;103813.31;5093344;28;20068;-72
2023/02/12 08:41:55;;;;;;;19.07;14.07;;;11.00;99.90;;;11.11;69.46;103791.34;5093109;28;20490;-72
2023/02/12 08:44:24;;;;;;;16.45;14.00;;;10.90;99.90;;;11.20;70.02;103809.34;5093285;28;20044;-73
2023/02/12 08:46:54;;;;;;;19.17;15.20;;;10.90;99.90;;;11.19;70.06;103819.03;5093150;28;20382;-72
2023/02/12 08:49:27;;;;;;;15.95;13.85;;;10.80;99.90;;;11.18;70.50;103832.25;5092835;28;20040;-72
2023/02/12 08:52:00;;;;;;;16.33;13.77;;;10.80;99.90;;;11.17;70.82;103819.84;5092231;28;20040;-73
2023/02/12 08:54:31;;;;;;;14.68;12.35;;;10.80;99.90;;;11.17;71.33;103820.72;5093033;28;20088;-72
2023/02/12 08:57:01;;;;;;;;;;;10.80;99.90;;;11.27;71.49;103825.56;5093324;28;20043;-73
2023/02/12 08:59:30;;;;;;;14.77;13.15;;;10.90;99.90;;;11.32;71.43;103826.66;5092846;28;19920;-73
2023/02/12 09:01:59;;;;;;;15.20;13.65;;;11.00;99.90;;;11.27;71.39;103825.56;5074882;28;20048;-72
2023/02/12 09:04:29;;;;;;;16.65;13.70;;;11.00;99.90;;;11.36;71.31;103825.91;5092697;28;20481;-71
2023/02/12 09:06:58;;;;;;;15.30;13.70;;;11.00;99.90;;;11.39;71.28;103823.41;5074974;28;20067;-72
2023/02/12 09:09:26;;;;;;;17.58;13.98;;;11.10;99.90;;;11.48;71.10;103836.09;5092799;28;20058;-70
2023/02/12 09:11:55;;;;;;;16.95;14.27;;;11.20;99.90;;;11.42;70.72;103812.03;5092444;28;20139;-71
2023/02/12 09:14:23;;;;;;;17.75;14.95;;;11.20;99.90;;;11.43;71.15;103835.03;5092610;28;20398;-73
2023/02/12 09:16:53;;;;;;;16.90;13.45;;;11.10;99.90;;;11.27;71.15;103790.19;5093161;28;20051;-71
2023/02/12 09:19:22;;;;;;;16.67;14.05;;;11.20;99.90;;;11.58;70.93;103841.84;5092836;28;20051;-71
2023/02/12 09:21:56;;;;;;;15.73;14.00;;;11.30;99.90;;;11.55;71.04;103847.03;5093114;28;20043;-71
2023/02/12 09:24:26;;;;;;;19.73;15.23;;;11.20;99.90;;;11.56;71.22;103848.81;5093074;28;20426;-72
2023/02/12 09:26:55;;;;;;;16.48;14.70;;;11.20;99.90;;;11.55;71.34;103847.03;5092514;28;20478;-72
2023/02/12 09:29:23;;;;;;;16.20;14.50;;;11.20;99.90;;;11.61;71.57;103847.25;5092325;28;20132;-73
2023/02/12 09:31:51;;;;;;;20.83;14.95;;;11.30;99.90;;;11.66;71.08;103851.03;5092270;28;20048;-71
2023/02/12 09:34:20;;;;;;;21.05;14.95;;;11.30;99.90;;;11.69;70.89;103851.13;5092482;28;20058;-72
2023/02/12 09:36:48;;;;;;;19.27;14.70;;;11.40;99.90;;;11.69;70.55;103845.84;5092927;28;20040;-69
2023/02/12 09:39:18;;;;;;;16.35;14.63;;;11.40;99.90;;;11.70;71.78;103844.09;5092642;28;20089;-69
2023/02/12 09:42:28;;;;;;;17.02;14.70;;;11.40;99.90;;;11.63;72.17;103847.34;5092473;28;20414;-70
2023/02/12 09:45:05;;;;;;;16.83;14.52;;;11.30;99.90;;;11.60;72.71;103845.47;5092461;28;20435;-69
2023/02/12 09:47:43;;;;;;;18.83;16.23;;;11.20;99.90;;;11.61;72.59;103841.06;5092521;28;20048;-72
2023/02/12 09:50:31;;;;;;;17.85;15.93;;;11.30;99.90;;;11.56;72.81;103842.63;5093067;28;20044;-71
2023/02/12 09:53:00;;;;;;;19.33;16.67;;;11.20;99.90;;;11.42;72.71;103812.03;5092244;28;20130;-69
2023/02/12 09:55:32;;;;;;;19.55;17.05;;;11.20;99.90;;;11.53;73.14;103838.13;5092585;28;20036;-71
2023/02/12 09:58:04;;;;;;;19.60;16.88;;;11.20;99.90;;;11.43;73.22;103830.63;5092205;28;20501;-70
2023/02/12 10:00:32;;;;;;;19.08;16.58;;;11.20;99.90;;;11.60;73.29;103850.75;5092485;28;20056;-68
2023/02/12 10:03:04;;;;;;;20.38;17.13;;;11.30;99.90;;;11.68;72.94;103840.47;5094978;28;20040;-71
2023/02/12 10:05:39;;;;;;;19.52;16.55;;;11.40;99.90;;;11.74;72.64;103838.06;5095739;28;20489;-71
2023/02/12 10:08:32;;;;;;;21.08;16.92;;;11.40;99.90;;;11.76;72.10;103839.94;5077573;28;20401;-69
2023/02/12 10:11:19;;;;;;;21.00;16.60;;;11.50;99.90;;;11.83;71.58;103837.53;5095754;28;20074;-69
2023/02/12 10:13:59;;;;;;;19.92;17.15;;;11.50;99.90;;;11.86;70.65;103842.94;5095553;28;20464;-69
2023/02/12 10:16:43;;;;;;;18.70;16.67;;;11.60;99.90;;;11.95;70.21;103840.63;5095651;28;20123;-69
2023/02/12 10:19:29;;;;;;;20.70;16.40;;;11.60;99.90;;;11.96;70.20;103839.78;5095812;28;20055;-68
2023/02/12 10:22:08;;;;;;;18.83;15.13;;;11.70;99.90;;;12.03;70.27;103844.47;5096024;28;20048;-67
2023/02/12 10:24:59;;;;;;;20.58;16.52;;;11.70;99.90;;;12.00;70.06;103834.63;5095722;28;20477;-68
2023/02/12 10:27:37;;;;;;;;;;;11.80;99.90;;;12.08;69.08;103848.22;5095987;28;20079;-70
2023/02/12 10:30:18;;;;;;;19.38;17.25;;;11.80;99.90;;;12.10;68.74;103844.75;5095363;28;20006;-70